El Centro Naval Air Facility, CA

16:04 PST le 28 novembre 2014 (GMT -0800)
Imperial County | Change Station
CLOSE
Current Station
Aéroport
Location: Imperial,
Altitude: -56 ft
Stations météo à proximité

Alt. -56 ft 32.83 °N, 115.58 °W | Updated 11 minutes ago

Ciel dégagé
Ciel dégagé
80 ° F
Paraît 80 ° F
N
5
Vent Variable Vent de ESE

Aujourd'hui
Haut(e) -- | Bas -- ° F
--% Risque de précip.
Hier
Haut(e) -- | Bas -- ° F
Precip. -- pouce
6:24 AM 4:36 PM
Lune montante, 45% visible
Pression 29.85 pouce
Visibilité 10.0 Miles terrestres
Nuages Ciel dégagé
Point de rosée 28 ° F
Humidité 15%
Précipitations 0.00 pouce
Profondeur de la couche neigeuse Non disponible.
UV 0 sur 12
Pollen 4.60 sur 12
Qualité de l'air Non disponible.
Flu Activity Non disponible.
METAR KIPL 282353Z AUTO 12004KT 10SM CLR 27/M02 A2985 RMK AO2 SLP108 T02671022 10278 20211 56014

More Conditions Fewer Conditions

Pression 29.85 pouce
Visibilité 10.0 Miles terrestres
Nuages Ciel dégagé
Point de rosée 28 ° F
Humidité 15%
Précipitations 0.00 pouce
Profondeur de la couche neigeuse Non disponible.
UV 0 sur 12
Pollen 4.60 sur 12
Qualité de l'air Non disponible.
Flu Activity Non disponible.
METAR KIPL 282353Z AUTO 12004KT 10SM CLR 27/M02 A2985 RMK AO2 SLP108 T02671022 10278 20211 56014

More Conditions Fewer Conditions

10-Day Weather Forecast

Almanac

Astronomie

Nov. 28, 2014 Lever Coucher
Temps réel
Crépuscule civil
Crépuscule nautique
Crépuscule astronomique
Lune
Durée de lumière visible
Longueur du jour
Tomorrow will be .
, % of the Moon is Illuminated

Extrêmes aujourd'hui

State Highs State Lows

Community

WunderPhotos

Upload Photos

1,774,342 Photos téléchargées !

WunderBlogs® & News

Nearby

Qualité de l'air

  Qualité de l'air Indice de la qualité de l'air Polluant
Not available.

Épaisseur de neige

Station Depth Altitude

Activité sismique

Ville Distance Mag. Time & Date
Minimum magnitude displayed is 2.5.

Températures des eaux côtières

Lieu Température

Stations météo à proximité